ΕΜΥ, Εθνική Μετεωρολογική Υπηρεσία - Δελτία Καιρού, Προγνώσεις

ΑΕΡΟΝΑΥΤΙΛΙΑ

GREEK AIRPORTS CODES

LGAV 130220Z VRB02KT 9999 FEW030 BKN080 07/07 Q1004 RMK SCT180 NOSIG=

EUROPEAN AIRPORTS CODES

LFPO 130230Z 24009KT 9999 FEW009 FEW015TCU BKN060 08/06Q0977 RERA TEMPO 3000 RA BKN008 SCT014CB=